createdAt,value
2018-07-31T00:02:01.428Z,7.23
2018-07-31T00:04:29.938Z,8.50
2018-07-31T00:06:58.166Z,7.87
2018-07-31T00:09:26.390Z,8.23
2018-07-31T00:11:54.645Z,7.40
2018-07-31T00:14:23.106Z,7.60
2018-07-31T00:16:51.420Z,7.87
2018-07-31T00:19:19.660Z,7.83
2018-07-31T00:21:48.287Z,7.10
2018-07-31T00:24:16.502Z,7.30
2018-07-31T00:26:44.692Z,6.60
2018-07-31T00:29:13.139Z,6.80
2018-07-31T00:31:42.098Z,6.93
2018-07-31T00:34:10.277Z,6.53
2018-07-31T00:36:38.518Z,6.77
2018-07-31T00:39:08.448Z,5.90
2018-07-31T00:41:36.810Z,6.83
2018-07-31T00:44:05.327Z,6.63
2018-07-31T00:46:34.263Z,6.87
2018-07-31T00:49:02.848Z,6.10
2018-07-31T00:51:31.078Z,6.70
2018-07-31T00:54:00.284Z,6.23
2018-07-31T00:56:28.896Z,6.53
2018-07-31T00:58:57.449Z,6.30
2018-07-31T01:01:26.075Z,6.23
2018-07-31T01:03:55.217Z,6.80
2018-07-31T01:06:28.087Z,7.67
2018-07-31T01:08:56.684Z,6.83
2018-07-31T01:11:25.967Z,6.50
2018-07-31T01:13:53.626Z,6.50
2018-07-31T01:16:22.126Z,6.33
2018-07-31T01:18:50.400Z,6.50
2018-07-31T01:21:18.633Z,6.80
2018-07-31T01:23:47.557Z,6.47
2018-07-31T01:26:15.764Z,6.07
2018-07-31T01:28:44.052Z,6.90
2018-07-31T01:31:12.315Z,6.30
2018-07-31T01:33:40.601Z,6.50
2018-07-31T01:36:08.880Z,6.50
2018-07-31T01:38:37.114Z,6.33
2018-07-31T01:41:06.204Z,6.63
2018-07-31T01:43:35.097Z,6.80
2018-07-31T01:46:03.370Z,6.70
2018-07-31T01:48:31.683Z,6.50
2018-07-31T01:51:00.547Z,6.20
2018-07-31T01:53:28.814Z,6.03
2018-07-31T01:55:57.594Z,6.60
2018-07-31T01:58:26.137Z,6.87
2018-07-31T02:00:54.606Z,6.67
2018-07-31T02:03:24.178Z,7.27
2018-07-31T02:05:52.496Z,7.20
2018-07-31T02:08:21.254Z,7.13
2018-07-31T02:10:50.172Z,7.33
2018-07-31T02:13:19.369Z,7.00
2018-07-31T02:15:47.919Z,7.80
2018-07-31T02:18:16.364Z,7.60
2018-07-31T02:20:44.992Z,8.20
2018-07-31T02:23:13.201Z,7.43
2018-07-31T02:25:42.031Z,8.07
2018-07-31T02:28:10.643Z,8.23
2018-07-31T02:30:38.907Z,7.57
2018-07-31T02:33:07.125Z,7.90
2018-07-31T02:35:35.412Z,8.30
2018-07-31T02:38:04.040Z,8.30
2018-07-31T02:40:32.302Z,8.23
2018-07-31T02:43:00.740Z,8.00
2018-07-31T02:45:30.271Z,7.80
2018-07-31T02:47:59.288Z,7.90
2018-07-31T02:50:29.436Z,7.77
2018-07-31T02:52:57.648Z,7.90
2018-07-31T02:55:26.312Z,7.97
2018-07-31T02:57:54.584Z,7.80
2018-07-31T03:00:22.814Z,7.47
2018-07-31T03:02:51.453Z,7.57
2018-07-31T03:05:19.774Z,7.60
2018-07-31T03:07:48.357Z,7.63
2018-07-31T03:10:16.603Z,7.03
2018-07-31T03:12:44.856Z,7.50
2018-07-31T03:15:13.597Z,7.33
2018-07-31T03:17:42.453Z,7.37
2018-07-31T03:20:11.377Z,6.97
2018-07-31T03:22:39.592Z,7.13
2018-07-31T03:25:09.278Z,7.17
2018-07-31T03:27:37.508Z,7.30
2018-07-31T03:30:06.476Z,7.03
2018-07-31T03:32:34.971Z,7.30
2018-07-31T03:35:03.214Z,6.77
2018-07-31T03:37:31.698Z,6.87
2018-07-31T03:39:59.912Z,7.40
2018-07-31T03:42:28.469Z,7.93
2018-07-31T03:44:56.645Z,6.63
2018-07-31T03:47:25.158Z,6.90
2018-07-31T03:49:53.635Z,7.30
2018-07-31T03:52:21.850Z,6.90
2018-07-31T03:54:50.144Z,7.13
2018-07-31T03:57:18.349Z,7.57
2018-07-31T03:59:47.070Z,7.33
2018-07-31T04:02:15.316Z,6.70
2018-07-31T04:04:44.123Z,6.70
2018-07-31T04:07:12.340Z,6.97
2018-07-31T04:09:40.521Z,6.27
2018-07-31T04:12:09.000Z,6.60
2018-07-31T04:14:37.579Z,7.17
2018-07-31T04:17:05.791Z,6.63
2018-07-31T04:19:34.220Z,7.00
2018-07-31T04:22:02.743Z,6.80
2018-07-31T04:24:31.257Z,7.50
2018-07-31T04:26:59.736Z,7.13
2018-07-31T04:29:27.924Z,6.93
2018-07-31T04:31:56.461Z,7.20
2018-07-31T04:34:24.730Z,7.10
2018-07-31T04:36:53.576Z,6.97
2018-07-31T04:39:21.766Z,7.50
2018-07-31T04:41:50.084Z,7.87
2018-07-31T04:44:18.907Z,7.70
2018-07-31T04:46:47.084Z,7.83
2018-07-31T04:49:15.638Z,8.27
2018-07-31T04:51:44.124Z,7.57
2018-07-31T04:54:12.632Z,7.50
2018-07-31T04:56:40.968Z,7.77
2018-07-31T04:59:09.185Z,8.07
2018-07-31T05:01:37.389Z,7.70
2018-07-31T05:04:05.588Z,7.37
2018-07-31T05:06:33.827Z,7.53
2018-07-31T05:09:02.480Z,7.80
2018-07-31T05:11:30.651Z,8.10
2018-07-31T05:13:58.877Z,9.90
2018-07-31T05:16:27.029Z,9.60
2018-07-31T05:18:55.257Z,9.40
2018-07-31T05:21:23.809Z,10.03
2018-07-31T05:23:52.564Z,9.33
2018-07-31T05:26:20.845Z,9.03
2018-07-31T05:28:49.393Z,10.10
2018-07-31T05:31:17.943Z,9.27
2018-07-31T05:33:46.177Z,9.70
2018-07-31T05:36:14.405Z,9.70
2018-07-31T05:38:42.599Z,9.27
2018-07-31T05:41:10.876Z,9.70
2018-07-31T05:43:39.123Z,9.10
2018-07-31T05:46:07.385Z,9.43
2018-07-31T05:48:35.566Z,8.73
2018-07-31T05:51:04.033Z,9.00
2018-07-31T05:53:32.567Z,8.77
2018-07-31T05:56:01.012Z,8.87
2018-07-31T05:58:29.232Z,8.20
2018-07-31T06:00:57.492Z,9.00
2018-07-31T06:03:25.791Z,10.53
2018-07-31T06:05:54.902Z,9.23
2018-07-31T06:08:23.264Z,9.43
2018-07-31T06:10:51.494Z,8.63
2018-07-31T06:13:19.672Z,9.87
2018-07-31T06:15:47.916Z,9.87
2018-07-31T06:18:16.368Z,8.80
2018-07-31T06:20:44.581Z,9.60
2018-07-31T06:23:13.557Z,9.13
2018-07-31T06:25:42.130Z,8.63
2018-07-31T06:28:10.376Z,10.23
2018-07-31T06:30:38.900Z,9.10
2018-07-31T06:33:08.076Z,8.57
2018-07-31T06:35:36.558Z,9.33
2018-07-31T06:38:04.829Z,9.53
2018-07-31T06:40:34.178Z,9.93
2018-07-31T06:43:04.285Z,9.57
2018-07-31T06:45:32.584Z,9.80
2018-07-31T06:48:01.562Z,10.00
2018-07-31T06:50:29.820Z,9.40
2018-07-31T06:52:58.042Z,9.80
2018-07-31T06:55:26.335Z,9.40
2018-07-31T06:57:54.540Z,10.87
2018-07-31T07:00:22.770Z,10.00
2018-07-31T07:02:51.590Z,10.37
2018-07-31T07:05:20.115Z,9.97
2018-07-31T07:07:48.277Z,9.37
2018-07-31T07:10:16.790Z,9.07
2018-07-31T07:12:45.059Z,10.50
2018-07-31T07:15:13.224Z,10.40
2018-07-31T07:17:41.704Z,10.20
2018-07-31T07:20:10.461Z,9.73
2018-07-31T07:22:38.805Z,9.63
2018-07-31T07:25:07.203Z,9.43
2018-07-31T07:27:35.711Z,9.63
2018-07-31T07:30:04.813Z,9.57
2018-07-31T07:32:33.071Z,8.80
2018-07-31T07:35:01.281Z,9.40
2018-07-31T07:37:30.251Z,13.20
2018-07-31T07:39:58.674Z,9.50
2018-07-31T07:42:27.346Z,8.80
2018-07-31T07:44:55.908Z,9.53
2018-07-31T07:47:24.911Z,8.80
2018-07-31T07:49:53.547Z,9.40
2018-07-31T07:52:22.150Z,8.90
2018-07-31T07:54:50.474Z,9.00
2018-07-31T07:57:19.423Z,9.83
2018-07-31T07:59:47.722Z,12.20
2018-07-31T08:02:16.597Z,9.20
2018-07-31T08:04:45.581Z,8.87
2018-07-31T08:07:16.235Z,8.50
2018-07-31T08:09:45.298Z,9.43
2018-07-31T08:12:14.070Z,10.70
2018-07-31T08:14:42.365Z,9.20
2018-07-31T08:17:11.548Z,8.87
2018-07-31T08:19:39.757Z,8.93
2018-07-31T08:22:08.737Z,9.40
2018-07-31T08:24:37.456Z,9.43
2018-07-31T08:27:06.280Z,8.87
2018-07-31T08:29:35.117Z,8.80
2018-07-31T08:32:03.624Z,8.83
2018-07-31T08:34:31.806Z,8.83
2018-07-31T08:37:00.264Z,8.50
2018-07-31T08:39:29.135Z,7.87
2018-07-31T08:41:57.620Z,9.47
2018-07-31T08:44:26.085Z,9.33
2018-07-31T08:46:54.925Z,9.10
2018-07-31T08:49:23.776Z,9.47
2018-07-31T08:51:51.985Z,10.67
2018-07-31T08:54:20.571Z,8.63
2018-07-31T08:56:49.850Z,8.30
2018-07-31T08:59:18.778Z,9.37
2018-07-31T09:01:47.807Z,8.17
2018-07-31T09:04:16.331Z,8.67
2018-07-31T09:06:44.929Z,9.63
2018-07-31T09:09:13.415Z,23.47
2018-07-31T09:11:42.128Z,12.80
2018-07-31T09:14:10.395Z,17.57
2018-07-31T09:16:39.203Z,28.57
2018-07-31T09:19:07.671Z,16.37
2018-07-31T09:21:36.753Z,13.10
2018-07-31T09:24:05.486Z,9.53
2018-07-31T09:26:33.985Z,17.03
2018-07-31T09:29:02.953Z,10.40
2018-07-31T09:31:31.342Z,9.03
2018-07-31T09:33:59.691Z,7.27
2018-07-31T09:36:28.236Z,8.13
2018-07-31T09:38:56.505Z,8.73
2018-07-31T09:41:24.759Z,10.60
2018-07-31T09:43:53.199Z,10.27
2018-07-31T09:46:21.724Z,7.57
2018-07-31T09:48:50.887Z,8.50
2018-07-31T09:51:19.358Z,8.67
2018-07-31T09:53:48.060Z,9.00
2018-07-31T09:56:17.965Z,8.23
2018-07-31T09:58:46.190Z,7.30
2018-07-31T10:01:19.048Z,7.27
2018-07-31T10:03:49.321Z,6.87
2018-07-31T10:06:18.363Z,7.37
2018-07-31T10:08:46.614Z,7.03
2018-07-31T10:11:14.993Z,7.23
2018-07-31T10:13:43.457Z,7.43
2018-07-31T10:16:11.939Z,7.63
2018-07-31T10:18:40.933Z,7.67
2018-07-31T10:21:09.559Z,7.80
2018-07-31T10:23:37.801Z,6.63
2018-07-31T10:26:06.034Z,7.07
2018-07-31T10:28:35.131Z,7.10
2018-07-31T10:31:03.333Z,6.83
2018-07-31T10:33:31.823Z,8.33
2018-07-31T10:36:00.399Z,7.50
2018-07-31T10:38:28.754Z,8.37
2018-07-31T10:40:57.003Z,8.60
2018-07-31T10:43:25.968Z,9.13
2018-07-31T10:45:54.571Z,6.47
2018-07-31T10:48:23.408Z,7.50
2018-07-31T10:50:52.198Z,7.13
2018-07-31T10:53:20.772Z,6.97
2018-07-31T10:55:48.954Z,8.10
2018-07-31T10:58:17.300Z,7.27
2018-07-31T11:00:45.879Z,6.67
2018-07-31T11:03:14.815Z,7.30
2018-07-31T11:05:43.339Z,7.33
2018-07-31T11:08:11.645Z,7.57
2018-07-31T11:10:40.597Z,10.67
2018-07-31T11:13:09.102Z,9.03
2018-07-31T11:15:37.384Z,10.27
2018-07-31T11:18:06.129Z,6.30
2018-07-31T11:20:34.777Z,8.97
2018-07-31T11:23:03.037Z,6.10
2018-07-31T11:25:31.249Z,5.97
2018-07-31T11:27:59.905Z,7.27
2018-07-31T11:30:28.676Z,6.70
2018-07-31T11:32:57.095Z,6.70
2018-07-31T11:35:25.593Z,7.50
2018-07-31T11:37:53.822Z,5.97
2018-07-31T11:40:22.333Z,6.50
2018-07-31T11:42:51.042Z,6.20
2018-07-31T11:45:19.357Z,6.40
2018-07-31T11:47:49.026Z,5.37
2018-07-31T11:50:17.285Z,6.73
2018-07-31T11:52:46.145Z,5.63
2018-07-31T11:55:14.420Z,6.10
2018-07-31T11:57:42.827Z,6.17
2018-07-31T12:00:13.545Z,6.23
2018-07-31T12:02:42.143Z,5.70
2018-07-31T12:05:10.732Z,5.50
2018-07-31T12:07:39.039Z,5.60
2018-07-31T12:10:07.558Z,5.93
2018-07-31T12:12:36.092Z,6.33
2018-07-31T12:15:04.588Z,6.27
2018-07-31T12:17:32.772Z,5.57
2018-07-31T12:20:00.987Z,6.00
2018-07-31T12:22:29.272Z,5.43
2018-07-31T12:24:57.928Z,5.70
2018-07-31T12:27:26.108Z,7.10
2018-07-31T12:29:54.356Z,6.10
2018-07-31T12:32:23.657Z,5.80
2018-07-31T12:34:52.122Z,5.37
2018-07-31T12:37:20.315Z,5.77
2018-07-31T12:39:48.866Z,5.97
2018-07-31T12:42:17.066Z,5.70
2018-07-31T12:44:45.800Z,6.37
2018-07-31T12:47:14.781Z,5.80
2018-07-31T12:49:43.244Z,6.07
2018-07-31T12:52:11.417Z,6.37
2018-07-31T12:54:39.629Z,6.50
2018-07-31T12:57:08.226Z,6.00
2018-07-31T12:59:37.257Z,6.03
2018-07-31T13:02:06.815Z,6.37
2018-07-31T13:04:35.156Z,6.40
2018-07-31T13:07:03.388Z,6.10
2018-07-31T13:09:31.858Z,5.63
2018-07-31T13:12:00.140Z,6.37
2018-07-31T13:14:28.613Z,6.00
2018-07-31T13:16:57.204Z,5.97
2018-07-31T13:19:25.437Z,5.70
2018-07-31T13:21:54.518Z,5.77
2018-07-31T13:24:24.333Z,5.53
2018-07-31T13:26:53.441Z,5.73
2018-07-31T13:29:21.588Z,5.57
2018-07-31T13:31:49.800Z,5.70
2018-07-31T13:34:18.254Z,5.87
2018-07-31T13:36:47.100Z,5.63
2018-07-31T13:39:15.293Z,5.77
2018-07-31T13:41:43.524Z,5.50
2018-07-31T13:44:12.103Z,5.33
2018-07-31T13:46:40.257Z,5.10
2018-07-31T13:49:08.553Z,5.80
2018-07-31T13:51:36.704Z,5.50
2018-07-31T13:54:05.188Z,5.90
2018-07-31T13:56:33.893Z,5.47
2018-07-31T13:59:02.274Z,5.40
2018-07-31T14:01:30.707Z,5.20
2018-07-31T14:03:58.945Z,5.70
2018-07-31T14:06:27.125Z,5.17
2018-07-31T14:08:55.305Z,4.97
2018-07-31T14:11:24.611Z,5.03
2018-07-31T14:13:53.128Z,4.83
2018-07-31T14:16:21.279Z,5.37
2018-07-31T14:18:49.883Z,5.00
2018-07-31T14:21:18.556Z,5.30
2018-07-31T14:23:47.061Z,5.30
2018-07-31T14:26:15.308Z,5.17
2018-07-31T14:28:43.558Z,4.77
2018-07-31T14:31:12.615Z,5.20
2018-07-31T14:33:41.192Z,5.50
2018-07-31T14:36:09.664Z,5.20
2018-07-31T14:38:37.966Z,4.77
2018-07-31T14:41:06.201Z,5.07
2018-07-31T14:43:34.777Z,5.43
2018-07-31T14:46:03.779Z,5.00
2018-07-31T14:48:32.283Z,5.00
2018-07-31T14:51:00.757Z,5.10
2018-07-31T14:53:29.278Z,5.13
2018-07-31T14:55:57.635Z,4.50
2018-07-31T14:58:26.174Z,5.40
2018-07-31T15:00:55.801Z,5.27
2018-07-31T15:03:24.028Z,4.93
2018-07-31T15:05:53.142Z,5.47
2018-07-31T15:08:21.771Z,4.97
2018-07-31T15:10:50.373Z,4.87
2018-07-31T15:13:19.005Z,4.77
2018-07-31T15:15:47.856Z,5.10
2018-07-31T15:18:16.888Z,4.77
2018-07-31T15:20:45.997Z,5.10
2018-07-31T15:23:14.822Z,5.30
2018-07-31T15:25:43.840Z,4.90
2018-07-31T15:28:12.404Z,4.83
2018-07-31T15:30:40.580Z,4.77
2018-07-31T15:33:09.137Z,4.60
2018-07-31T15:35:37.802Z,5.07
2018-07-31T15:38:06.050Z,4.90
2018-07-31T15:40:34.346Z,4.40
2018-07-31T15:43:02.981Z,4.57
2018-07-31T15:45:31.127Z,5.00
2018-07-31T15:47:59.324Z,4.73
2018-07-31T15:50:27.965Z,4.60
2018-07-31T15:52:56.385Z,5.30
2018-07-31T15:55:24.621Z,4.70
2018-07-31T15:57:53.267Z,4.40
2018-07-31T16:00:21.855Z,4.90
2018-07-31T16:02:50.023Z,5.30
2018-07-31T16:05:18.329Z,4.97
2018-07-31T16:07:46.616Z,4.90
2018-07-31T16:10:14.876Z,5.17
2018-07-31T16:12:43.096Z,4.67
2018-07-31T16:15:11.989Z,4.53
2018-07-31T16:17:40.187Z,5.50
2018-07-31T16:20:08.689Z,5.07
2018-07-31T16:22:36.888Z,4.90
2018-07-31T16:25:05.252Z,5.17
2018-07-31T16:27:34.155Z,4.97
2018-07-31T16:30:02.637Z,4.63
2018-07-31T16:32:30.864Z,5.00
2018-07-31T16:34:59.447Z,5.20
2018-07-31T16:37:27.935Z,5.00
2018-07-31T16:39:56.164Z,5.20
2018-07-31T16:42:25.300Z,5.33
2018-07-31T16:44:54.738Z,5.27
2018-07-31T16:47:23.352Z,5.23
2018-07-31T16:49:51.848Z,5.50
2018-07-31T16:52:20.386Z,5.23
2018-07-31T16:54:48.997Z,5.40
2018-07-31T16:57:17.229Z,5.50
2018-07-31T16:59:45.512Z,5.40
2018-07-31T17:02:14.382Z,6.13
2018-07-31T17:04:42.590Z,5.63
2018-07-31T17:07:10.825Z,5.63
2018-07-31T17:09:39.690Z,5.63
2018-07-31T17:12:09.553Z,6.00
2018-07-31T17:14:37.766Z,5.50
2018-07-31T17:17:06.520Z,5.67
2018-07-31T17:19:34.721Z,5.50
2018-07-31T17:22:03.281Z,5.63
2018-07-31T17:24:31.660Z,5.80
2018-07-31T17:27:00.034Z,6.17
2018-07-31T17:29:28.695Z,6.03
2018-07-31T17:31:57.416Z,6.13
2018-07-31T17:34:26.005Z,6.60
2018-07-31T17:36:54.580Z,6.23
2018-07-31T17:39:23.067Z,5.87
2018-07-31T17:41:51.717Z,5.90
2018-07-31T17:44:20.206Z,6.00
2018-07-31T17:46:48.412Z,6.00
2018-07-31T17:49:17.196Z,6.07
2018-07-31T17:51:46.151Z,6.23
2018-07-31T17:54:14.362Z,6.00
2018-07-31T17:56:42.592Z,5.63
2018-07-31T17:59:11.019Z,5.87
2018-07-31T18:01:39.346Z,6.93
2018-07-31T18:04:07.917Z,7.03
2018-07-31T18:06:36.256Z,6.73
2018-07-31T18:09:07.913Z,6.23
2018-07-31T18:11:38.836Z,5.50
2018-07-31T18:14:08.005Z,5.07
2018-07-31T18:16:36.942Z,5.43
2018-07-31T18:19:05.396Z,5.13
2018-07-31T18:21:33.875Z,5.00
2018-07-31T18:24:02.112Z,5.43
2018-07-31T18:26:30.488Z,5.37
2018-07-31T18:28:58.597Z,5.13
2018-07-31T18:31:27.378Z,5.60
2018-07-31T18:33:55.966Z,5.17
2018-07-31T18:36:24.470Z,5.73
2018-07-31T18:38:52.710Z,5.60
2018-07-31T18:41:22.008Z,5.73
2018-07-31T18:43:50.679Z,5.27
2018-07-31T18:46:19.167Z,5.20
2018-07-31T18:48:48.053Z,4.80
2018-07-31T18:51:17.099Z,5.20
2018-07-31T18:53:46.242Z,4.97
2018-07-31T18:56:14.459Z,5.13
2018-07-31T18:58:43.123Z,4.93
2018-07-31T19:01:11.706Z,5.03
2018-07-31T19:03:40.384Z,5.27
2018-07-31T19:06:08.597Z,5.10
2018-07-31T19:08:36.897Z,5.37
2018-07-31T19:11:05.143Z,5.07
2018-07-31T19:13:34.344Z,7.93
2018-07-31T19:16:02.949Z,8.43
2018-07-31T19:18:31.488Z,5.07
2018-07-31T19:21:00.374Z,6.00
2018-07-31T19:23:28.676Z,5.27
2018-07-31T19:25:56.968Z,4.80
2018-07-31T19:28:25.225Z,5.80
2018-07-31T19:30:55.090Z,4.63
2018-07-31T19:33:23.618Z,4.53
2018-07-31T19:35:52.829Z,4.93
2018-07-31T19:38:21.277Z,5.70
2018-07-31T19:40:49.485Z,5.53
2018-07-31T19:43:17.933Z,6.57
2018-07-31T19:45:46.812Z,5.10
2018-07-31T19:48:15.112Z,5.60
2018-07-31T19:50:43.948Z,5.20
2018-07-31T19:53:12.761Z,5.20
2018-07-31T19:55:41.638Z,4.80
2018-07-31T19:58:10.532Z,5.53
2018-07-31T20:00:38.845Z,4.97
2018-07-31T20:03:07.540Z,5.70
2018-07-31T20:05:36.412Z,5.37
2018-07-31T20:08:05.901Z,5.90
2018-07-31T20:10:36.093Z,5.53
2018-07-31T20:13:05.245Z,5.10
2018-07-31T20:15:33.781Z,5.03
2018-07-31T20:18:02.597Z,6.00
2018-07-31T20:20:30.937Z,6.03
2018-07-31T20:22:59.864Z,5.67
2018-07-31T20:25:28.136Z,5.70
2018-07-31T20:27:56.425Z,6.13
2018-07-31T20:30:25.669Z,6.53
2018-07-31T20:32:54.494Z,6.17
2018-07-31T20:35:23.053Z,6.13
2018-07-31T20:37:51.443Z,5.83
2018-07-31T20:40:20.744Z,6.50
2018-07-31T20:42:49.915Z,5.87
2018-07-31T20:45:18.188Z,6.10
2018-07-31T20:47:46.567Z,5.90
2018-07-31T20:50:15.148Z,5.90
2018-07-31T20:52:44.740Z,6.30
2018-07-31T20:55:13.111Z,24.27
2018-07-31T20:57:41.361Z,6.40
2018-07-31T21:00:09.658Z,6.03
2018-07-31T21:02:38.565Z,7.60
2018-07-31T21:05:07.213Z,6.30
2018-07-31T21:07:35.933Z,6.00
2018-07-31T21:10:05.002Z,8.40
2018-07-31T21:12:34.048Z,5.80
2018-07-31T21:15:03.067Z,7.87
2018-07-31T21:17:34.259Z,6.03
2018-07-31T21:20:02.747Z,6.03
2018-07-31T21:22:31.968Z,6.27
2018-07-31T21:25:00.781Z,6.00
2018-07-31T21:27:29.496Z,5.87
2018-07-31T21:29:57.812Z,6.53
2018-07-31T21:32:26.445Z,6.10
2018-07-31T21:34:55.329Z,6.60
2018-07-31T21:37:23.855Z,5.50
2018-07-31T21:39:52.483Z,6.17
2018-07-31T21:42:20.650Z,6.10
2018-07-31T21:44:49.878Z,6.20
2018-07-31T21:47:21.492Z,6.60
2018-07-31T21:49:50.638Z,5.70
2018-07-31T21:52:19.108Z,6.37
2018-07-31T21:54:47.723Z,6.20
2018-07-31T21:57:15.916Z,6.00
2018-07-31T21:59:44.592Z,5.30
2018-07-31T22:02:14.034Z,4.90
2018-07-31T22:04:42.640Z,6.33
2018-07-31T22:07:10.988Z,5.73
2018-07-31T22:09:44.433Z,8.10
2018-07-31T22:12:13.342Z,5.60
2018-07-31T22:14:42.184Z,5.50
2018-07-31T22:17:11.710Z,5.53
2018-07-31T22:19:40.814Z,5.77
2018-07-31T22:22:09.322Z,5.40
2018-07-31T22:24:38.519Z,4.87
2018-07-31T22:27:06.661Z,5.47
2018-07-31T22:29:35.122Z,5.13
2018-07-31T22:32:03.654Z,4.80
2018-07-31T22:34:32.240Z,4.70
2018-07-31T22:37:00.964Z,4.97
2018-07-31T22:39:29.310Z,4.90
2018-07-31T22:41:57.535Z,4.70
2018-07-31T22:44:26.440Z,5.00
2018-07-31T22:46:54.922Z,5.00
2018-07-31T22:49:23.755Z,5.20
2018-07-31T22:51:52.012Z,4.93
2018-07-31T22:54:20.566Z,5.23
2018-07-31T22:56:48.712Z,4.97
2018-07-31T22:59:17.782Z,5.50
2018-07-31T23:01:46.596Z,5.10
2018-07-31T23:04:14.797Z,5.43
2018-07-31T23:06:46.363Z,5.23
2018-07-31T23:09:14.586Z,4.80
2018-07-31T23:11:43.630Z,5.10
2018-07-31T23:14:11.939Z,4.90
2018-07-31T23:16:40.764Z,5.57
2018-07-31T23:19:08.970Z,5.23
2018-07-31T23:21:37.579Z,5.17
2018-07-31T23:24:06.028Z,5.53
2018-07-31T23:26:34.828Z,4.70
2018-07-31T23:29:04.068Z,4.40
2018-07-31T23:31:33.482Z,4.47
2018-07-31T23:34:02.018Z,4.40
2018-07-31T23:36:30.252Z,4.50
2018-07-31T23:38:58.852Z,3.90
2018-07-31T23:41:27.138Z,3.60
2018-07-31T23:43:55.392Z,3.53
2018-07-31T23:46:23.681Z,4.10
2018-07-31T23:48:52.341Z,4.30
2018-07-31T23:51:20.665Z,4.20
2018-07-31T23:53:48.918Z,3.60
2018-07-31T23:56:18.115Z,3.90
2018-07-31T23:58:46.879Z,3.27
